sensor_id;sensor_type;location;lat;lon;timestamp;temperature;humidity
20654;DHT22;21083;50.898;4.902;2023-02-20T00:00:48;6.70;99.90
20654;DHT22;21083;50.898;4.902;2023-02-20T00:03:15;6.70;99.90
20654;DHT22;21083;50.898;4.902;2023-02-20T00:05:42;6.70;99.90
20654;DHT22;21083;50.898;4.902;2023-02-20T00:08:09;6.80;99.90
20654;DHT22;21083;50.898;4.902;2023-02-20T00:10:36;6.80;99.90
20654;DHT22;21083;50.898;4.902;2023-02-20T00:13:04;6.90;99.90
20654;DHT22;21083;50.898;4.902;2023-02-20T00:15:31;6.80;99.90
20654;DHT22;21083;50.898;4.902;2023-02-20T00:17:58;6.80;99.90
20654;DHT22;21083;50.898;4.902;2023-02-20T00:20:25;6.80;99.90
20654;DHT22;21083;50.898;4.902;2023-02-20T00:22:54;6.70;99.90
20654;DHT22;21083;50.898;4.902;2023-02-20T00:25:21;6.70;99.90
20654;DHT22;21083;50.898;4.902;2023-02-20T00:27:48;6.60;99.90
20654;DHT22;21083;50.898;4.902;2023-02-20T00:30:19;6.50;99.90
20654;DHT22;21083;50.898;4.902;2023-02-20T00:32:47;6.50;99.90
20654;DHT22;21083;50.898;4.902;2023-02-20T00:35:14;6.60;99.90
20654;DHT22;21083;50.898;4.902;2023-02-20T00:37:41;6.50;99.90
20654;DHT22;21083;50.898;4.902;2023-02-20T00:40:09;6.50;99.90
20654;DHT22;21083;50.898;4.902;2023-02-20T00:42:36;6.50;99.90
20654;DHT22;21083;50.898;4.902;2023-02-20T00:45:03;6.50;99.90
20654;DHT22;21083;50.898;4.902;2023-02-20T00:47:32;6.50;99.90
20654;DHT22;21083;50.898;4.902;2023-02-20T00:49:59;6.50;99.90
20654;DHT22;21083;50.898;4.902;2023-02-20T00:52:26;6.40;99.90
20654;DHT22;21083;50.898;4.902;2023-02-20T00:54:53;6.40;99.90
20654;DHT22;21083;50.898;4.902;2023-02-20T00:57:20;6.40;99.90
20654;DHT22;21083;50.898;4.902;2023-02-20T00:59:47;6.40;99.90
20654;DHT22;21083;50.898;4.902;2023-02-20T01:02:14;6.40;99.90
20654;DHT22;21083;50.898;4.902;2023-02-20T01:04:42;6.50;99.90
20654;DHT22;21083;50.898;4.902;2023-02-20T01:07:09;6.50;99.90
20654;DHT22;21083;50.898;4.902;2023-02-20T01:09:36;6.60;99.90
20654;DHT22;21083;50.898;4.902;2023-02-20T01:12:04;6.60;99.90
20654;DHT22;21083;50.898;4.902;2023-02-20T01:14:31;6.70;99.90
20654;DHT22;21083;50.898;4.902;2023-02-20T01:16:58;6.60;99.90
20654;DHT22;21083;50.898;4.902;2023-02-20T01:19:25;6.60;99.90
20654;DHT22;21083;50.898;4.902;2023-02-20T01:21:53;6.60;99.90
20654;DHT22;21083;50.898;4.902;2023-02-20T01:24:20;6.60;99.90
20654;DHT22;21083;50.898;4.902;2023-02-20T01:26:48;6.80;99.90
20654;DHT22;21083;50.898;4.902;2023-02-20T01:29:15;6.70;99.90
20654;DHT22;21083;50.898;4.902;2023-02-20T01:31:46;6.60;99.90
20654;DHT22;21083;50.898;4.902;2023-02-20T01:34:14;6.50;99.90
20654;DHT22;21083;50.898;4.902;2023-02-20T01:36:45;6.50;99.90
20654;DHT22;21083;50.898;4.902;2023-02-20T01:39:16;6.50;99.90
20654;DHT22;21083;50.898;4.902;2023-02-20T01:41:43;6.50;99.90
20654;DHT22;21083;50.898;4.902;2023-02-20T01:44:17;6.40;99.90
20654;DHT22;21083;50.898;4.902;2023-02-20T01:46:50;6.50;99.90
20654;DHT22;21083;50.898;4.902;2023-02-20T01:49:22;6.40;99.90
20654;DHT22;21083;50.898;4.902;2023-02-20T01:51:54;6.30;99.90
20654;DHT22;21083;50.898;4.902;2023-02-20T01:54:25;6.30;99.90
20654;DHT22;21083;50.898;4.902;2023-02-20T01:56:56;6.40;99.90
20654;DHT22;21083;50.898;4.902;2023-02-20T01:59:27;6.40;99.90
20654;DHT22;21083;50.898;4.902;2023-02-20T02:01:55;6.40;99.90
20654;DHT22;21083;50.898;4.902;2023-02-20T02:04:22;6.40;99.90
20654;DHT22;21083;50.898;4.902;2023-02-20T02:06:51;6.30;99.90
20654;DHT22;21083;50.898;4.902;2023-02-20T02:09:27;6.30;99.90
20654;DHT22;21083;50.898;4.902;2023-02-20T02:11:56;6.30;99.90
20654;DHT22;21083;50.898;4.902;2023-02-20T02:14:23;6.20;99.90
20654;DHT22;21083;50.898;4.902;2023-02-20T02:17:05;6.30;99.90
20654;DHT22;21083;50.898;4.902;2023-02-20T02:20:09;6.30;99.90
20654;DHT22;21083;50.898;4.902;2023-02-20T02:26:17;6.20;99.90
20654;DHT22;21083;50.898;4.902;2023-02-20T02:29:06;6.20;99.90
20654;DHT22;21083;50.898;4.902;2023-02-20T02:31:55;6.30;99.90
20654;DHT22;21083;50.898;4.902;2023-02-20T02:34:51;6.30;99.90
20654;DHT22;21083;50.898;4.902;2023-02-20T02:37:28;6.20;99.90
20654;DHT22;21083;50.898;4.902;2023-02-20T02:40:01;6.30;99.90
20654;DHT22;21083;50.898;4.902;2023-02-20T02:42:34;6.30;99.90
20654;DHT22;21083;50.898;4.902;2023-02-20T02:45:10;6.30;99.90
20654;DHT22;21083;50.898;4.902;2023-02-20T02:47:43;6.40;99.90
20654;DHT22;21083;50.898;4.902;2023-02-20T02:50:16;6.50;99.90
20654;DHT22;21083;50.898;4.902;2023-02-20T02:52:46;6.40;99.90
20654;DHT22;21083;50.898;4.902;2023-02-20T02:55:16;6.40;99.90
20654;DHT22;21083;50.898;4.902;2023-02-20T02:57:43;6.40;99.90
20654;DHT22;21083;50.898;4.902;2023-02-20T03:00:14;6.40;99.90
20654;DHT22;21083;50.898;4.902;2023-02-20T03:02:47;6.40;99.90
20654;DHT22;21083;50.898;4.902;2023-02-20T03:05:19;6.40;99.90
20654;DHT22;21083;50.898;4.902;2023-02-20T03:07:53;6.40;99.90
20654;DHT22;21083;50.898;4.902;2023-02-20T03:10:23;6.30;99.90
20654;DHT22;21083;50.898;4.902;2023-02-20T03:12:58;6.30;99.90
20654;DHT22;21083;50.898;4.902;2023-02-20T03:15:28;6.30;99.90
20654;DHT22;21083;50.898;4.902;2023-02-20T03:18:04;6.20;99.90
20654;DHT22;21083;50.898;4.902;2023-02-20T03:20:38;6.30;99.90
20654;DHT22;21083;50.898;4.902;2023-02-20T03:23:09;6.30;99.90
20654;DHT22;21083;50.898;4.902;2023-02-20T03:25:38;6.40;99.90
20654;DHT22;21083;50.898;4.902;2023-02-20T03:28:10;6.40;99.90
20654;DHT22;21083;50.898;4.902;2023-02-20T03:30:42;6.40;99.90
20654;DHT22;21083;50.898;4.902;2023-02-20T03:33:13;6.40;99.90
20654;DHT22;21083;50.898;4.902;2023-02-20T03:36:00;6.40;99.90
20654;DHT22;21083;50.898;4.902;2023-02-20T03:38:53;6.40;99.90
20654;DHT22;21083;50.898;4.902;2023-02-20T03:41:41;6.40;99.90
20654;DHT22;21083;50.898;4.902;2023-02-20T03:44:29;6.30;99.90
20654;DHT22;21083;50.898;4.902;2023-02-20T03:47:01;6.20;99.90
20654;DHT22;21083;50.898;4.902;2023-02-20T03:49:33;6.20;99.90
20654;DHT22;21083;50.898;4.902;2023-02-20T03:52:01;6.20;99.90
20654;DHT22;21083;50.898;4.902;2023-02-20T03:54:29;6.10;99.90
20654;DHT22;21083;50.898;4.902;2023-02-20T03:57:02;6.10;99.90
20654;DHT22;21083;50.898;4.902;2023-02-20T03:59:32;6.10;99.90
20654;DHT22;21083;50.898;4.902;2023-02-20T04:02:05;6.10;99.90
20654;DHT22;21083;50.898;4.902;2023-02-20T04:04:36;6.10;99.90
20654;DHT22;21083;50.898;4.902;2023-02-20T04:07:09;6.10;99.90
20654;DHT22;21083;50.898;4.902;2023-02-20T04:09:42;6.10;99.90
20654;DHT22;21083;50.898;4.902;2023-02-20T04:12:14;6.10;99.90
20654;DHT22;21083;50.898;4.902;2023-02-20T04:14:43;6.10;99.90
20654;DHT22;21083;50.898;4.902;2023-02-20T04:17:15;6.10;99.90
20654;DHT22;21083;50.898;4.902;2023-02-20T04:19:45;6.10;99.90
20654;DHT22;21083;50.898;4.902;2023-02-20T04:22:16;6.10;99.90
20654;DHT22;21083;50.898;4.902;2023-02-20T04:24:48;6.20;99.90
20654;DHT22;21083;50.898;4.902;2023-02-20T04:27:15;6.20;99.90
20654;DHT22;21083;50.898;4.902;2023-02-20T04:29:43;6.20;99.90
20654;DHT22;21083;50.898;4.902;2023-02-20T04:32:10;6.20;99.90
20654;DHT22;21083;50.898;4.902;2023-02-20T04:34:37;6.20;99.90
20654;DHT22;21083;50.898;4.902;2023-02-20T04:37:07;6.30;99.90
20654;DHT22;21083;50.898;4.902;2023-02-20T04:39:35;6.30;99.90
20654;DHT22;21083;50.898;4.902;2023-02-20T04:42:03;6.40;99.90
20654;DHT22;21083;50.898;4.902;2023-02-20T04:44:30;6.40;99.90
20654;DHT22;21083;50.898;4.902;2023-02-20T04:46:59;6.40;99.90
20654;DHT22;21083;50.898;4.902;2023-02-20T04:49:27;6.50;99.90
20654;DHT22;21083;50.898;4.902;2023-02-20T04:51:54;6.50;99.90
20654;DHT22;21083;50.898;4.902;2023-02-20T04:54:21;6.60;99.90
20654;DHT22;21083;50.898;4.902;2023-02-20T04:56:48;6.60;99.90
20654;DHT22;21083;50.898;4.902;2023-02-20T04:59:16;6.60;99.90
20654;DHT22;21083;50.898;4.902;2023-02-20T05:01:43;6.60;99.90
20654;DHT22;21083;50.898;4.902;2023-02-20T05:04:13;6.70;99.90
20654;DHT22;21083;50.898;4.902;2023-02-20T05:06:41;6.70;99.90
20654;DHT22;21083;50.898;4.902;2023-02-20T05:09:08;6.70;99.90
20654;DHT22;21083;50.898;4.902;2023-02-20T05:11:36;6.70;99.90
20654;DHT22;21083;50.898;4.902;2023-02-20T05:14:04;6.60;99.90
20654;DHT22;21083;50.898;4.902;2023-02-20T05:16:32;6.70;99.90
20654;DHT22;21083;50.898;4.902;2023-02-20T05:19:00;6.70;99.90
20654;DHT22;21083;50.898;4.902;2023-02-20T05:21:27;6.70;99.90
20654;DHT22;21083;50.898;4.902;2023-02-20T05:24:12;6.70;99.90
20654;DHT22;21083;50.898;4.902;2023-02-20T05:26:39;6.80;99.90
20654;DHT22;21083;50.898;4.902;2023-02-20T05:29:06;6.80;99.90
20654;DHT22;21083;50.898;4.902;2023-02-20T05:31:35;6.80;99.90
20654;DHT22;21083;50.898;4.902;2023-02-20T05:34:02;6.80;99.90
20654;DHT22;21083;50.898;4.902;2023-02-20T05:36:29;6.90;99.90
20654;DHT22;21083;50.898;4.902;2023-02-20T05:38:56;6.90;99.90
20654;DHT22;21083;50.898;4.902;2023-02-20T05:41:23;6.90;99.90
20654;DHT22;21083;50.898;4.902;2023-02-20T05:43:50;6.90;99.90
20654;DHT22;21083;50.898;4.902;2023-02-20T05:46:19;6.90;99.90
20654;DHT22;21083;50.898;4.902;2023-02-20T05:48:49;6.90;99.90
20654;DHT22;21083;50.898;4.902;2023-02-20T05:51:21;7.00;99.90
20654;DHT22;21083;50.898;4.902;2023-02-20T05:53:48;7.00;99.90
20654;DHT22;21083;50.898;4.902;2023-02-20T05:56:15;7.00;99.90
20654;DHT22;21083;50.898;4.902;2023-02-20T05:58:42;7.00;99.90
20654;DHT22;21083;50.898;4.902;2023-02-20T06:01:16;6.90;99.90
20654;DHT22;21083;50.898;4.902;2023-02-20T06:03:43;6.90;99.90
20654;DHT22;21083;50.898;4.902;2023-02-20T06:06:11;6.90;99.90
20654;DHT22;21083;50.898;4.902;2023-02-20T06:08:38;6.90;99.90
20654;DHT22;21083;50.898;4.902;2023-02-20T06:11:06;6.90;99.90
20654;DHT22;21083;50.898;4.902;2023-02-20T06:13:33;7.00;99.90
20654;DHT22;21083;50.898;4.902;2023-02-20T06:16:00;6.90;99.90
20654;DHT22;21083;50.898;4.902;2023-02-20T06:18:27;6.90;99.90
20654;DHT22;21083;50.898;4.902;2023-02-20T06:20:54;6.90;99.90
20654;DHT22;21083;50.898;4.902;2023-02-20T06:23:22;7.00;99.90
20654;DHT22;21083;50.898;4.902;2023-02-20T06:25:49;7.10;99.90
20654;DHT22;21083;50.898;4.902;2023-02-20T06:28:16;6.90;99.90
20654;DHT22;21083;50.898;4.902;2023-02-20T06:30:43;7.00;99.90
20654;DHT22;21083;50.898;4.902;2023-02-20T06:33:10;7.00;99.90
20654;DHT22;21083;50.898;4.902;2023-02-20T06:35:37;7.00;99.90
20654;DHT22;21083;50.898;4.902;2023-02-20T06:38:04;7.00;99.90
20654;DHT22;21083;50.898;4.902;2023-02-20T06:40:32;7.10;99.90
20654;DHT22;21083;50.898;4.902;2023-02-20T06:42:59;7.00;99.90
20654;DHT22;21083;50.898;4.902;2023-02-20T06:45:26;7.00;99.90
20654;DHT22;21083;50.898;4.902;2023-02-20T06:47:53;7.10;99.90
20654;DHT22;21083;50.898;4.902;2023-02-20T06:50:20;7.00;99.90
20654;DHT22;21083;50.898;4.902;2023-02-20T06:52:47;7.00;99.90
20654;DHT22;21083;50.898;4.902;2023-02-20T06:55:14;7.00;99.90
20654;DHT22;21083;50.898;4.902;2023-02-20T06:57:42;7.10;99.90
20654;DHT22;21083;50.898;4.902;2023-02-20T07:00:10;7.10;99.90
20654;DHT22;21083;50.898;4.902;2023-02-20T07:02:37;7.10;99.90
20654;DHT22;21083;50.898;4.902;2023-02-20T07:05:05;7.10;99.90
20654;DHT22;21083;50.898;4.902;2023-02-20T07:07:33;7.10;99.90
20654;DHT22;21083;50.898;4.902;2023-02-20T07:10:00;7.10;99.90
20654;DHT22;21083;50.898;4.902;2023-02-20T07:12:29;7.00;99.90
20654;DHT22;21083;50.898;4.902;2023-02-20T07:14:58;7.10;99.90
20654;DHT22;21083;50.898;4.902;2023-02-20T07:17:25;7.00;99.90
20654;DHT22;21083;50.898;4.902;2023-02-20T07:19:52;7.00;99.90
20654;DHT22;21083;50.898;4.902;2023-02-20T07:22:19;7.00;99.90
20654;DHT22;21083;50.898;4.902;2023-02-20T07:24:49;7.10;99.90
20654;DHT22;21083;50.898;4.902;2023-02-20T07:27:16;7.00;99.90
20654;DHT22;21083;50.898;4.902;2023-02-20T07:29:44;7.10;99.90
20654;DHT22;21083;50.898;4.902;2023-02-20T07:32:12;7.30;99.90
20654;DHT22;21083;50.898;4.902;2023-02-20T07:34:39;7.30;99.90
20654;DHT22;21083;50.898;4.902;2023-02-20T07:37:06;7.30;99.90
20654;DHT22;21083;50.898;4.902;2023-02-20T07:39:33;7.30;99.90
20654;DHT22;21083;50.898;4.902;2023-02-20T07:42:00;7.30;99.90
20654;DHT22;21083;50.898;4.902;2023-02-20T07:44:27;7.30;99.90
20654;DHT22;21083;50.898;4.902;2023-02-20T07:46:54;7.40;99.90
20654;DHT22;21083;50.898;4.902;2023-02-20T07:49:22;7.30;99.90
20654;DHT22;21083;50.898;4.902;2023-02-20T07:51:49;7.40;99.90
20654;DHT22;21083;50.898;4.902;2023-02-20T07:54:16;7.30;99.90
20654;DHT22;21083;50.898;4.902;2023-02-20T07:56:42;7.40;99.90
20654;DHT22;21083;50.898;4.902;2023-02-20T07:59:09;7.50;99.90
20654;DHT22;21083;50.898;4.902;2023-02-20T08:01:37;7.50;99.90
20654;DHT22;21083;50.898;4.902;2023-02-20T08:04:04;7.50;99.90
20654;DHT22;21083;50.898;4.902;2023-02-20T08:06:32;7.50;99.90
20654;DHT22;21083;50.898;4.902;2023-02-20T08:09:00;7.50;99.90
20654;DHT22;21083;50.898;4.902;2023-02-20T08:11:27;7.50;99.90
20654;DHT22;21083;50.898;4.902;2023-02-20T08:13:54;7.40;99.90
20654;DHT22;21083;50.898;4.902;2023-02-20T08:16:21;7.50;99.90
20654;DHT22;21083;50.898;4.902;2023-02-20T08:18:48;7.50;99.90
20654;DHT22;21083;50.898;4.902;2023-02-20T08:21:15;7.50;99.90
20654;DHT22;21083;50.898;4.902;2023-02-20T08:23:43;7.50;99.90
20654;DHT22;21083;50.898;4.902;2023-02-20T08:26:10;7.40;99.90
20654;DHT22;21083;50.898;4.902;2023-02-20T08:28:38;7.40;99.90
20654;DHT22;21083;50.898;4.902;2023-02-20T08:31:05;7.40;99.90
20654;DHT22;21083;50.898;4.902;2023-02-20T08:33:32;7.40;99.90
20654;DHT22;21083;50.898;4.902;2023-02-20T08:35:59;7.50;99.90
20654;DHT22;21083;50.898;4.902;2023-02-20T08:38:29;7.50;99.90
20654;DHT22;21083;50.898;4.902;2023-02-20T08:41:01;7.50;99.90
20654;DHT22;21083;50.898;4.902;2023-02-20T08:43:28;7.50;99.90
20654;DHT22;21083;50.898;4.902;2023-02-20T08:45:55;7.50;99.90
20654;DHT22;21083;50.898;4.902;2023-02-20T08:48:23;7.50;99.90
20654;DHT22;21083;50.898;4.902;2023-02-20T08:50:50;7.60;99.90
20654;DHT22;21083;50.898;4.902;2023-02-20T08:53:17;7.60;99.90
20654;DHT22;21083;50.898;4.902;2023-02-20T08:55:44;7.50;99.90
20654;DHT22;21083;50.898;4.902;2023-02-20T08:58:12;7.60;99.90
20654;DHT22;21083;50.898;4.902;2023-02-20T09:00:39;7.60;99.90
20654;DHT22;21083;50.898;4.902;2023-02-20T09:03:06;7.70;99.90
20654;DHT22;21083;50.898;4.902;2023-02-20T09:05:33;7.70;99.90
20654;DHT22;21083;50.898;4.902;2023-02-20T09:08:00;7.70;99.90
20654;DHT22;21083;50.898;4.902;2023-02-20T09:10:27;7.70;99.90
20654;DHT22;21083;50.898;4.902;2023-02-20T09:12:54;7.70;99.90
20654;DHT22;21083;50.898;4.902;2023-02-20T09:15:23;7.70;99.90
20654;DHT22;21083;50.898;4.902;2023-02-20T09:17:51;7.80;99.90
20654;DHT22;21083;50.898;4.902;2023-02-20T09:20:19;7.90;99.90
20654;DHT22;21083;50.898;4.902;2023-02-20T09:22:46;7.90;99.90
20654;DHT22;21083;50.898;4.902;2023-02-20T09:25:13;7.90;99.90
20654;DHT22;21083;50.898;4.902;2023-02-20T09:27:40;7.90;99.90
20654;DHT22;21083;50.898;4.902;2023-02-20T09:30:08;7.90;99.90
20654;DHT22;21083;50.898;4.902;2023-02-20T09:32:38;7.90;99.90
20654;DHT22;21083;50.898;4.902;2023-02-20T09:35:05;8.00;99.90
20654;DHT22;21083;50.898;4.902;2023-02-20T09:37:32;8.10;99.90
20654;DHT22;21083;50.898;4.902;2023-02-20T09:39:59;8.10;99.90
20654;DHT22;21083;50.898;4.902;2023-02-20T09:42:33;8.10;99.90
20654;DHT22;21083;50.898;4.902;2023-02-20T09:45:09;8.10;99.90
20654;DHT22;21083;50.898;4.902;2023-02-20T09:47:50;8.10;99.90
20654;DHT22;21083;50.898;4.902;2023-02-20T09:50:25;8.00;99.90
20654;DHT22;21083;50.898;4.902;2023-02-20T09:53:00;8.10;99.90
20654;DHT22;21083;50.898;4.902;2023-02-20T09:55:34;8.20;99.90
20654;DHT22;21083;50.898;4.902;2023-02-20T09:58:02;8.10;99.90
20654;DHT22;21083;50.898;4.902;2023-02-20T10:00:32;8.20;99.90
20654;DHT22;21083;50.898;4.902;2023-02-20T10:03:12;8.10;99.90
20654;DHT22;21083;50.898;4.902;2023-02-20T10:05:41;8.10;99.90
20654;DHT22;21083;50.898;4.902;2023-02-20T10:08:12;8.10;99.90
20654;DHT22;21083;50.898;4.902;2023-02-20T10:10:40;8.10;99.90
20654;DHT22;21083;50.898;4.902;2023-02-20T10:13:21;8.20;99.90
20654;DHT22;21083;50.898;4.902;2023-02-20T10:15:56;8.20;99.90
20654;DHT22;21083;50.898;4.902;2023-02-20T10:18:33;8.20;99.90
20654;DHT22;21083;50.898;4.902;2023-02-20T10:21:07;8.10;99.90
20654;DHT22;21083;50.898;4.902;2023-02-20T10:23:45;8.10;99.90
20654;DHT22;21083;50.898;4.902;2023-02-20T10:26:17;8.10;99.90
20654;DHT22;21083;50.898;4.902;2023-02-20T10:28:47;8.00;99.90
20654;DHT22;21083;50.898;4.902;2023-02-20T10:31:25;8.00;99.90
20654;DHT22;21083;50.898;4.902;2023-02-20T10:33:58;8.00;99.90
20654;DHT22;21083;50.898;4.902;2023-02-20T10:36:29;8.10;99.90
20654;DHT22;21083;50.898;4.902;2023-02-20T10:39:05;8.10;99.90
20654;DHT22;21083;50.898;4.902;2023-02-20T10:41:37;8.10;99.90
20654;DHT22;21083;50.898;4.902;2023-02-20T10:44:12;8.20;99.90
20654;DHT22;21083;50.898;4.902;2023-02-20T10:46:46;8.20;99.90
20654;DHT22;21083;50.898;4.902;2023-02-20T10:49:23;8.30;99.90
20654;DHT22;21083;50.898;4.902;2023-02-20T10:51:54;8.30;99.90
20654;DHT22;21083;50.898;4.902;2023-02-20T10:54:27;8.30;99.90
20654;DHT22;21083;50.898;4.902;2023-02-20T10:57:01;8.30;99.90
20654;DHT22;21083;50.898;4.902;2023-02-20T10:59:35;8.30;99.90
20654;DHT22;21083;50.898;4.902;2023-02-20T11:02:13;8.50;99.90
20654;DHT22;21083;50.898;4.902;2023-02-20T11:04:49;8.50;99.90
20654;DHT22;21083;50.898;4.902;2023-02-20T11:07:18;8.50;99.90
20654;DHT22;21083;50.898;4.902;2023-02-20T11:09:46;8.50;99.90
20654;DHT22;21083;50.898;4.902;2023-02-20T11:12:22;8.50;99.90
20654;DHT22;21083;50.898;4.902;2023-02-20T11:14:52;8.50;99.90
20654;DHT22;21083;50.898;4.902;2023-02-20T11:17:23;8.60;99.90
20654;DHT22;21083;50.898;4.902;2023-02-20T11:19:54;8.50;99.90
20654;DHT22;21083;50.898;4.902;2023-02-20T11:22:40;8.60;99.90
20654;DHT22;21083;50.898;4.902;2023-02-20T11:25:17;8.80;99.90
20654;DHT22;21083;50.898;4.902;2023-02-20T11:27:46;8.80;99.90
20654;DHT22;21083;50.898;4.902;2023-02-20T11:30:26;8.80;99.90
20654;DHT22;21083;50.898;4.902;2023-02-20T11:33:00;8.60;99.90
20654;DHT22;21083;50.898;4.902;2023-02-20T11:35:32;8.60;99.90
20654;DHT22;21083;50.898;4.902;2023-02-20T11:38:33;8.60;99.90
20654;DHT22;21083;50.898;4.902;2023-02-20T11:44:09;8.50;99.90
20654;DHT22;21083;50.898;4.902;2023-02-20T11:46:42;8.50;99.90
20654;DHT22;21083;50.898;4.902;2023-02-20T11:49:22;8.60;99.90
20654;DHT22;21083;50.898;4.902;2023-02-20T11:52:06;8.60;99.90
20654;DHT22;21083;50.898;4.902;2023-02-20T11:54:33;8.70;99.90
20654;DHT22;21083;50.898;4.902;2023-02-20T11:57:02;8.70;99.90
20654;DHT22;21083;50.898;4.902;2023-02-20T11:59:37;8.90;99.90
20654;DHT22;21083;50.898;4.902;2023-02-20T12:02:26;8.80;99.90
20654;DHT22;21083;50.898;4.902;2023-02-20T12:05:09;9.00;99.90
20654;DHT22;21083;50.898;4.902;2023-02-20T12:07:40;9.00;99.90
20654;DHT22;21083;50.898;4.902;2023-02-20T12:10:24;9.00;99.90
20654;DHT22;21083;50.898;4.902;2023-02-20T12:12:53;9.00;99.90
20654;DHT22;21083;50.898;4.902;2023-02-20T12:15:22;8.90;99.90
20654;DHT22;21083;50.898;4.902;2023-02-20T12:20:53;8.90;99.90
20654;DHT22;21083;50.898;4.902;2023-02-20T12:23:30;8.90;99.90
20654;DHT22;21083;50.898;4.902;2023-02-20T12:26:11;8.90;99.90
20654;DHT22;21083;50.898;4.902;2023-02-20T12:28:48;8.80;99.90
20654;DHT22;21083;50.898;4.902;2023-02-20T12:31:27;8.80;99.90
20654;DHT22;21083;50.898;4.902;2023-02-20T12:34:14;8.80;99.90
20654;DHT22;21083;50.898;4.902;2023-02-20T12:36:48;8.80;99.90
20654;DHT22;21083;50.898;4.902;2023-02-20T12:39:25;9.00;99.90
20654;DHT22;21083;50.898;4.902;2023-02-20T12:42:16;9.00;99.90
20654;DHT22;21083;50.898;4.902;2023-02-20T12:45:07;9.10;99.90
20654;DHT22;21083;50.898;4.902;2023-02-20T12:47:40;9.00;99.90
20654;DHT22;21083;50.898;4.902;2023-02-20T12:50:33;8.90;99.90
20654;DHT22;21083;50.898;4.902;2023-02-20T12:53:23;9.00;99.90
20654;DHT22;21083;50.898;4.902;2023-02-20T12:56:04;9.00;99.90
20654;DHT22;21083;50.898;4.902;2023-02-20T12:58:41;9.00;99.90
20654;DHT22;21083;50.898;4.902;2023-02-20T13:01:12;9.10;99.90
20654;DHT22;21083;50.898;4.902;2023-02-20T13:03:45;9.10;99.90
20654;DHT22;21083;50.898;4.902;2023-02-20T13:06:22;9.10;99.90
20654;DHT22;21083;50.898;4.902;2023-02-20T13:09:01;9.10;99.90
20654;DHT22;21083;50.898;4.902;2023-02-20T13:11:35;9.10;99.90
20654;DHT22;21083;50.898;4.902;2023-02-20T13:14:16;9.10;99.90
20654;DHT22;21083;50.898;4.902;2023-02-20T13:16:50;9.10;99.90
20654;DHT22;21083;50.898;4.902;2023-02-20T13:19:23;9.10;99.90
20654;DHT22;21083;50.898;4.902;2023-02-20T13:21:53;9.20;99.90
20654;DHT22;21083;50.898;4.902;2023-02-20T13:24:31;9.20;99.90
20654;DHT22;21083;50.898;4.902;2023-02-20T13:27:00;9.20;99.90
20654;DHT22;21083;50.898;4.902;2023-02-20T13:29:32;9.30;99.90
20654;DHT22;21083;50.898;4.902;2023-02-20T13:32:02;9.30;99.90
20654;DHT22;21083;50.898;4.902;2023-02-20T13:34:32;9.40;99.90
20654;DHT22;21083;50.898;4.902;2023-02-20T13:37:00;9.50;99.90
20654;DHT22;21083;50.898;4.902;2023-02-20T13:39:45;9.70;99.90
20654;DHT22;21083;50.898;4.902;2023-02-20T13:42:36;9.60;99.90
20654;DHT22;21083;50.898;4.902;2023-02-20T13:45:33;9.70;99.90
20654;DHT22;21083;50.898;4.902;2023-02-20T13:51:33;9.50;99.90
20654;DHT22;21083;50.898;4.902;2023-02-20T13:54:25;9.50;99.90
20654;DHT22;21083;50.898;4.902;2023-02-20T13:56:58;9.40;99.90
20654;DHT22;21083;50.898;4.902;2023-02-20T13:59:30;9.40;99.90
20654;DHT22;21083;50.898;4.902;2023-02-20T14:02:17;9.40;99.90
20654;DHT22;21083;50.898;4.902;2023-02-20T14:04:57;9.40;99.90
20654;DHT22;21083;50.898;4.902;2023-02-20T14:07:33;9.30;99.90
20654;DHT22;21083;50.898;4.902;2023-02-20T14:10:04;9.30;99.90
20654;DHT22;21083;50.898;4.902;2023-02-20T14:12:33;9.40;99.90
20654;DHT22;21083;50.898;4.902;2023-02-20T14:15:05;9.40;99.90
20654;DHT22;21083;50.898;4.902;2023-02-20T14:17:33;9.50;99.90
20654;DHT22;21083;50.898;4.902;2023-02-20T14:20:02;9.50;99.90
20654;DHT22;21083;50.898;4.902;2023-02-20T14:22:32;9.40;99.90
20654;DHT22;21083;50.898;4.902;2023-02-20T14:25:01;9.30;99.90
20654;DHT22;21083;50.898;4.902;2023-02-20T14:27:30;9.30;99.90
20654;DHT22;21083;50.898;4.902;2023-02-20T14:30:08;9.30;99.90
20654;DHT22;21083;50.898;4.902;2023-02-20T14:32:37;9.40;99.90
20654;DHT22;21083;50.898;4.902;2023-02-20T14:35:15;9.40;99.90
20654;DHT22;21083;50.898;4.902;2023-02-20T14:37:53;9.40;99.90
20654;DHT22;21083;50.898;4.902;2023-02-20T14:40:26;9.50;99.90
20654;DHT22;21083;50.898;4.902;2023-02-20T14:43:00;9.50;99.90
20654;DHT22;21083;50.898;4.902;2023-02-20T14:45:29;9.40;99.90
20654;DHT22;21083;50.898;4.902;2023-02-20T14:47:58;9.40;99.90
20654;DHT22;21083;50.898;4.902;2023-02-20T14:50:28;9.40;99.90
20654;DHT22;21083;50.898;4.902;2023-02-20T14:53:05;9.30;99.90
20654;DHT22;21083;50.898;4.902;2023-02-20T14:55:36;9.40;99.90
20654;DHT22;21083;50.898;4.902;2023-02-20T14:58:06;9.40;99.90
20654;DHT22;21083;50.898;4.902;2023-02-20T15:00:36;9.40;99.90
20654;DHT22;21083;50.898;4.902;2023-02-20T15:03:08;9.40;99.90
20654;DHT22;21083;50.898;4.902;2023-02-20T15:05:40;9.40;99.90
20654;DHT22;21083;50.898;4.902;2023-02-20T15:08:20;9.40;99.90
20654;DHT22;21083;50.898;4.902;2023-02-20T15:10:48;9.40;99.90
20654;DHT22;21083;50.898;4.902;2023-02-20T15:13:18;9.40;99.90
20654;DHT22;21083;50.898;4.902;2023-02-20T15:15:50;9.40;99.90
20654;DHT22;21083;50.898;4.902;2023-02-20T15:18:31;9.40;99.90
20654;DHT22;21083;50.898;4.902;2023-02-20T15:20:58;9.40;99.90
20654;DHT22;21083;50.898;4.902;2023-02-20T15:23:28;9.40;99.90
20654;DHT22;21083;50.898;4.902;2023-02-20T15:25:56;9.50;99.90
20654;DHT22;21083;50.898;4.902;2023-02-20T15:28:26;9.40;99.90
20654;DHT22;21083;50.898;4.902;2023-02-20T15:31:19;9.40;99.90
20654;DHT22;21083;50.898;4.902;2023-02-20T15:33:49;9.50;99.90
20654;DHT22;21083;50.898;4.902;2023-02-20T15:36:20;9.50;99.90
20654;DHT22;21083;50.898;4.902;2023-02-20T15:38:49;9.50;99.90
20654;DHT22;21083;50.898;4.902;2023-02-20T15:41:17;9.40;99.90
20654;DHT22;21083;50.898;4.902;2023-02-20T15:43:46;9.40;99.90
20654;DHT22;21083;50.898;4.902;2023-02-20T15:46:14;9.40;99.90
20654;DHT22;21083;50.898;4.902;2023-02-20T15:48:42;9.50;99.90
20654;DHT22;21083;50.898;4.902;2023-02-20T15:51:09;9.50;99.90
20654;DHT22;21083;50.898;4.902;2023-02-20T15:53:36;9.60;99.90
20654;DHT22;21083;50.898;4.902;2023-02-20T15:56:04;9.50;99.90
20654;DHT22;21083;50.898;4.902;2023-02-20T15:58:34;9.30;99.90
20654;DHT22;21083;50.898;4.902;2023-02-20T16:01:02;9.30;99.90
20654;DHT22;21083;50.898;4.902;2023-02-20T16:03:31;9.40;99.90
20654;DHT22;21083;50.898;4.902;2023-02-20T16:05:59;9.40;99.90
20654;DHT22;21083;50.898;4.902;2023-02-20T16:08:26;9.40;99.90
20654;DHT22;21083;50.898;4.902;2023-02-20T16:10:54;9.40;99.90
20654;DHT22;21083;50.898;4.902;2023-02-20T16:13:24;9.30;99.90
20654;DHT22;21083;50.898;4.902;2023-02-20T16:15:54;9.30;99.90
20654;DHT22;21083;50.898;4.902;2023-02-20T16:18:21;9.30;99.90
20654;DHT22;21083;50.898;4.902;2023-02-20T16:20:51;9.20;99.90
20654;DHT22;21083;50.898;4.902;2023-02-20T16:23:17;9.30;99.90